TimeCDT,TemperatureF,Dew PointF,Humidity,Sea Level PressureIn,VisibilityMPH,Wind Direction,Wind SpeedMPH,Gust SpeedMPH,PrecipitationIn,Events,Conditions,WindDirDegrees,DateUTC
12:15 AM,39.9,32.2,74,30.29,10.0,NW,4.6,-,N/A,,Clear,310,2012-10-27 05:15:00
12:35 AM,39.6,32.0,74,30.29,10.0,NW,4.6,-,N/A,,Clear,320,2012-10-27 05:35:00
12:55 AM,39.0,32.0,76,30.28,10.0,NW,3.5,-,N/A,,Clear,310,2012-10-27 05:55:00
1:15 AM,39.0,32.0,76,30.27,10.0,NNW,6.9,-,N/A,,Clear,330,2012-10-27 06:15:00
1:35 AM,40.1,32.0,73,30.27,10.0,NNW,8.1,-,N/A,,Scattered Clouds,330,2012-10-27 06:35:00
1:55 AM,40.1,31.6,72,30.27,10.0,NNW,8.1,-,N/A,,Clear,330,2012-10-27 06:55:00
2:15 AM,39.6,31.6,73,30.27,10.0,NNW,6.9,-,N/A,,Clear,330,2012-10-27 07:15:00
2:35 AM,39.2,31.6,74,30.27,10.0,NNW,8.1,-,N/A,,Clear,330,2012-10-27 07:35:00
2:55 AM,39.2,31.5,74,30.27,10.0,NNW,10.4,-,N/A,,Clear,340,2012-10-27 07:55:00
3:35 AM,38.3,31.5,76,30.26,10.0,NNW,9.2,-,N/A,,Clear,330,2012-10-27 08:35:00
3:55 AM,37.8,31.6,79,30.27,10.0,NNW,9.2,-,N/A,,Clear,330,2012-10-27 08:55:00
4:15 AM,37.4,31.6,80,30.27,10.0,NNW,9.2,-,N/A,,Clear,340,2012-10-27 09:15:00
4:35 AM,37.2,31.6,80,30.27,10.0,NNW,10.4,16.1,N/A,,Clear,340,2012-10-27 09:35:00
4:55 AM,36.9,31.6,81,30.27,10.0,NNW,11.5,16.1,N/A,,Clear,340,2012-10-27 09:55:00
5:15 AM,36.9,31.6,81,30.27,10.0,NNW,9.2,17.3,N/A,,Clear,340,2012-10-27 10:15:00
5:35 AM,36.9,31.5,81,30.27,10.0,NNW,11.5,17.3,N/A,,Clear,340,2012-10-27 10:35:00
5:55 AM,36.7,31.1,80,30.28,10.0,NNW,8.1,-,N/A,,Clear,340,2012-10-27 10:55:00
6:15 AM,36.5,30.9,80,30.27,10.0,NNW,8.1,16.1,N/A,,Clear,340,2012-10-27 11:15:00
6:55 AM,36.0,30.2,80,30.29,10.0,NNW,10.4,-,N/A,,Clear,330,2012-10-27 11:55:00
7:15 AM,36.1,30.6,80,30.30,10.0,NNW,6.9,-,N/A,,Mostly Cloudy,330,2012-10-27 12:15:00
7:35 AM,36.5,30.6,79,30.30,10.0,NNW,8.1,-,N/A,,Overcast,330,2012-10-27 12:35:00
7:55 AM,37.0,31.1,79,30.30,10.0,NNW,9.2,-,N/A,,Overcast,340,2012-10-27 12:55:00
8:15 AM,37.8,31.6,79,30.29,10.0,North,8.1,16.1,N/A,,Mostly Cloudy,350,2012-10-27 13:15:00
8:35 AM,38.5,31.6,76,30.29,10.0,NNW,9.2,16.1,N/A,,Mostly Cloudy,340,2012-10-27 13:35:00
8:55 AM,39.4,32.0,75,30.29,10.0,North,8.1,-,N/A,,Scattered Clouds,360,2012-10-27 13:55:00
9:15 AM,41.0,32.2,71,30.29,10.0,NNW,9.2,-,N/A,,Clear,340,2012-10-27 14:15:00
9:35 AM,41.9,32.4,69,30.29,10.0,NNW,11.5,-,N/A,,Clear,340,2012-10-27 14:35:00
9:55 AM,43.0,33.1,68,30.29,10.0,NNW,10.4,17.3,N/A,,Clear,340,2012-10-27 14:55:00
10:15 AM,44.6,33.8,66,30.29,10.0,NNW,11.5,-,N/A,,Clear,340,2012-10-27 15:15:00
10:35 AM,44.8,33.6,65,30.29,10.0,NNW,11.5,18.4,N/A,,Clear,330,2012-10-27 15:35:00
10:55 AM,45.9,34.0,63,30.30,10.0,NW,8.1,16.1,N/A,,Clear,320,2012-10-27 15:55:00
11:15 AM,46.4,33.8,62,30.30,10.0,North,10.4,-,N/A,,Clear,350,2012-10-27 16:15:00
11:35 AM,47.1,34.2,61,30.29,10.0,North,6.9,-,N/A,,Clear,350,2012-10-27 16:35:00
11:55 AM,48.2,34.7,60,30.28,10.0,North,9.2,17.3,N/A,,Clear,350,2012-10-27 16:55:00
12:15 PM,48.2,34.2,58,30.27,10.0,North,10.4,20.7,N/A,,Scattered Clouds,360,2012-10-27 17:15:00
12:35 PM,48.7,33.8,56,30.26,10.0,North,10.4,16.1,N/A,,Scattered Clouds,360,2012-10-27 17:35:00
12:55 PM,47.5,33.1,57,30.26,10.0,NNE,9.2,-,N/A,,Mostly Cloudy,30,2012-10-27 17:55:00
1:15 PM,49.5,32.9,53,30.25,10.0,North,11.5,-,N/A,,Mostly Cloudy,350,2012-10-27 18:15:00
1:35 PM,49.1,32.5,53,30.24,10.0,North,9.2,-,N/A,,Mostly Cloudy,350,2012-10-27 18:35:00
1:55 PM,48.6,31.8,52,30.24,10.0,North,8.1,-,N/A,,Scattered Clouds,10,2012-10-27 18:55:00
2:15 PM,50.0,32.0,50,30.23,10.0,North,8.1,16.1,N/A,,Mostly Cloudy,350,2012-10-27 19:15:00
2:35 PM,49.1,32.2,52,30.22,10.0,North,6.9,-,N/A,,Mostly Cloudy,360,2012-10-27 19:35:00
2:55 PM,50.4,32.7,51,30.22,10.0,North,11.5,16.1,N/A,,Mostly Cloudy,360,2012-10-27 19:55:00
3:15 PM,49.5,32.5,52,30.22,10.0,NNE,12.7,17.3,N/A,,Mostly Cloudy,20,2012-10-27 20:15:00
3:35 PM,49.3,32.0,51,30.22,10.0,NNE,15.0,-,N/A,,Mostly Cloudy,20,2012-10-27 20:35:00
3:55 PM,48.9,31.8,52,30.22,10.0,North,11.5,18.4,N/A,,Scattered Clouds,10,2012-10-27 20:55:00
4:15 PM,47.7,32.2,55,30.22,10.0,NNE,11.5,16.1,N/A,,Scattered Clouds,30,2012-10-27 21:15:00
4:35 PM,47.3,32.2,56,30.22,10.0,NNE,12.7,17.3,N/A,,Clear,30,2012-10-27 21:35:00
4:55 PM,45.1,32.4,61,30.23,10.0,NNE,10.4,-,N/A,,Clear,30,2012-10-27 21:55:00
5:15 PM,44.1,32.0,63,30.24,10.0,NNE,10.4,-,N/A,,Clear,30,2012-10-27 22:15:00
5:35 PM,43.2,32.2,65,30.25,10.0,NE,9.2,-,N/A,,Clear,40,2012-10-27 22:35:00
5:55 PM,41.9,32.4,69,30.26,10.0,NE,6.9,-,N/A,,Clear,40,2012-10-27 22:55:00
6:15 PM,41.9,31.8,67,30.26,10.0,NNE,9.2,-,N/A,,Clear,20,2012-10-27 23:15:00
6:35 PM,41.0,31.6,69,30.27,10.0,NE,10.4,-,N/A,,Clear,40,2012-10-27 23:35:00
6:55 PM,40.6,31.3,69,30.27,10.0,NE,9.2,-,N/A,,Clear,40,2012-10-27 23:55:00
7:15 PM,40.1,31.1,70,30.27,10.0,NNE,8.1,-,N/A,,Clear,30,2012-10-28 00:15:00
7:35 PM,39.2,31.1,73,30.26,10.0,NNE,8.1,-,N/A,,Clear,30,2012-10-28 00:35:00
7:55 PM,38.7,31.1,74,30.27,10.0,NNE,4.6,-,N/A,,Clear,30,2012-10-28 00:55:00
8:15 PM,38.1,31.1,76,30.27,10.0,North,4.6,-,N/A,,Clear,10,2012-10-28 01:15:00
8:35 PM,38.3,31.1,75,30.27,10.0,North,3.5,-,N/A,,Clear,360,2012-10-28 01:35:00
8:55 PM,38.8,31.6,75,30.26,10.0,North,4.6,-,N/A,,Clear,10,2012-10-28 01:55:00
9:15 PM,39.4,31.1,72,30.26,10.0,North,5.8,-,N/A,,Clear,10,2012-10-28 02:15:00
9:35 PM,41.0,32.0,70,30.25,10.0,North,5.8,-,N/A,,Clear,360,2012-10-28 02:35:00
9:55 PM,40.1,31.1,70,30.26,10.0,North,5.8,-,N/A,,Clear,350,2012-10-28 02:55:00
10:15 PM,39.4,30.9,72,30.26,10.0,North,4.6,-,N/A,,Clear,350,2012-10-28 03:15:00
10:35 PM,39.2,30.6,71,30.26,10.0,NW,4.6,-,N/A,,Clear,320,2012-10-28 03:35:00
10:55 PM,39.2,30.2,70,30.26,10.0,NNW,5.8,-,N/A,,Clear,330,2012-10-28 03:55:00
11:15 PM,37.9,30.4,74,30.26,10.0,NNW,5.8,-,N/A,,Clear,330,2012-10-28 04:15:00
11:35 PM,37.4,30.6,76,30.26,10.0,NW,5.8,-,N/A,,Clear,320,2012-10-28 04:35:00
11:55 PM,37.4,30.7,77,30.25,10.0,NNW,5.8,-,N/A,,Clear,330,2012-10-28 04:55:00